Time;durP1;ratioP1;P1;durP2;ratioP2;P2;SDS_P1;SDS_P2;PMS_P1;PMS_P2;Temp;Humidity;BMP_temperature;BMP_pressure;BME280_temperature;BME280_humidity;BME280_pressure;Samples;Min_cycle;Max_cycle;Signal;HPM_P1;HPM_P2
2022/11/07 00:01:55;;;;;;;3.17;1.60;;;;;;;;;;5055416;28;20025;-79
2022/11/07 00:04:20;;;;;;;3.05;1.50;;;;;;;;;;5073282;28;20458;-78
2022/11/07 00:06:45;;;;;;;2.45;1.55;;;;;;;;;;5038600;28;20028;-79
2022/11/07 00:09:11;;;;;;;2.03;1.40;;;;;;;;;;5054976;28;20032;-79
2022/11/07 00:11:36;;;;;;;3.85;1.88;;;;;;;;;;5038632;28;20043;-79
2022/11/07 00:14:02;;;;;;;3.90;1.48;;;;;;;;;;5073223;28;20110;-79
2022/11/07 00:16:28;;;;;;;3.50;1.50;;;;;;;;;;5054743;28;20056;-78
2022/11/07 00:18:54;;;;;;;3.70;1.98;;;;;;;;;;5038518;28;20033;-78
2022/11/07 00:21:19;;;;;;;4.50;1.70;;;;;;;;;;5054786;28;20020;-79
2022/11/07 00:23:44;;;;;;;5.70;1.77;;;;;;;;;;5057530;28;20048;-79
2022/11/07 00:26:12;;;;;;;4.07;1.70;;;;;;;;;;5041529;28;20033;-79
2022/11/07 00:28:40;;;;;;;4.30;1.60;;;;;;;;;;5058834;28;20541;-79
2022/11/07 00:31:07;;;;;;;6.53;1.73;;;;;;;;;;5041368;28;20031;-79
2022/11/07 00:33:32;;;;;;;4.65;1.73;;;;;;;;;;5041583;28;20032;-79
2022/11/07 00:35:58;;;;;;;2.85;1.65;;;;;;;;;;5058102;28;20071;-79
2022/11/07 00:38:23;;;;;;;5.55;1.80;;;;;;;;;;5041388;28;20448;-78
2022/11/07 00:40:56;;;;;;;2.95;1.70;;;;;;;;;;5057963;28;20029;-78
2022/11/07 00:43:22;;;;;;;4.67;2.10;;;;;;;;;;5058038;28;20088;-79
2022/11/07 00:45:48;;;;;;;3.92;1.70;;;;;;;;;;5057948;28;20029;-79
2022/11/07 00:48:13;;;;;;;5.60;1.70;;;;;;;;;;5075637;28;20441;-79
2022/11/07 00:50:39;;;;;;;3.45;1.50;;;;;;;;;;5075586;28;20060;-79
2022/11/07 00:53:05;;;;;;;2.92;1.60;;;;;;;;;;5075512;28;20040;-79
2022/11/07 00:55:33;;;;;;;2.90;1.52;;;;;;;;;;5057763;28;20471;-79
2022/11/07 00:57:59;;;;;;;2.90;1.60;;;;;;;;;;5040852;28;20028;-79
2022/11/07 01:00:25;;;;;;;3.78;1.98;;;;;;;;;;5041230;28;20382;-79
2022/11/07 01:05:34;;;;;;;3.85;1.75;;;;;;;;;;5061236;28;20031;-79
2022/11/07 01:07:59;;;;;;;3.95;1.55;;;;;;;;;;5059478;28;20040;-79
2022/11/07 01:10:25;;;;;;;4.57;1.80;;;;;;;;;;5076141;28;20047;-79
2022/11/07 01:12:50;;;;;;;6.13;1.48;;;;;;;;;;5042467;28;20036;-79
2022/11/07 01:15:15;;;;;;;3.22;1.38;;;;;;;;;;5075731;28;20029;-79
2022/11/07 01:17:41;;;;;;;2.42;1.60;;;;;;;;;;5057931;28;20123;-79
2022/11/07 01:20:07;;;;;;;4.63;1.40;;;;;;;;;;5057519;28;20029;-79
2022/11/07 01:22:32;;;;;;;6.10;1.83;;;;;;;;;;5040720;28;20050;-79
2022/11/07 01:24:57;;;;;;;7.85;2.20;;;;;;;;;;5075988;28;20025;-80
2022/11/07 01:27:23;;;;;;;1.88;1.50;;;;;;;;;;5057220;28;20056;-79
2022/11/07 01:29:48;;;;;;;2.50;1.50;;;;;;;;;;5075664;28;20077;-79
2022/11/07 01:32:14;;;;;;;2.63;1.50;;;;;;;;;;5057613;28;20024;-78
2022/11/07 01:34:39;;;;;;;5.38;1.50;;;;;;;;;;5074657;28;20032;-78
2022/11/07 01:37:04;;;;;;;2.65;1.60;;;;;;;;;;5040269;28;20024;-78
2022/11/07 01:39:30;;;;;;;2.53;1.25;;;;;;;;;;5075969;28;20028;-78
2022/11/07 01:41:55;;;;;;;3.70;1.63;;;;;;;;;;5040469;28;20105;-78
2022/11/07 01:44:20;;;;;;;4.13;1.65;;;;;;;;;;5056778;28;20020;-78
2022/11/07 01:46:47;;;;;;;3.08;1.60;;;;;;;;;;5074974;28;20031;-78
2022/11/07 01:49:25;;;;;;;3.30;1.73;;;;;;;;;;5040112;28;20028;-78
2022/11/07 01:51:59;;;;;;;4.35;1.48;;;;;;;;;;5056979;28;20027;-78
2022/11/07 01:54:26;;;;;;;;;;;;;;;;;;5057104;28;20028;-78
2022/11/07 01:56:53;;;;;;;4.75;1.60;;;;;;;;;;5040181;28;19908;-78
2022/11/07 01:59:21;;;;;;;2.08;1.20;;;;;;;;;;5039723;28;20048;-78
2022/11/07 02:01:47;;;;;;;4.35;1.52;;;;;;;;;;5056488;28;20028;-78
2022/11/07 02:04:13;;;;;;;3.90;1.40;;;;;;;;;;5040273;28;20036;-77
2022/11/07 02:06:51;;;;;;;2.75;1.30;;;;;;;;;;5040135;28;20037;-78
2022/11/07 02:09:16;;;;;;;6.70;1.83;;;;;;;;;;5057565;28;20025;-78
2022/11/07 02:11:42;;;;;;;2.95;1.70;;;;;;;;;;5039854;28;20066;-78
2022/11/07 02:14:12;;;;;;;6.50;1.52;;;;;;;;;;5075239;28;20028;-79
2022/11/07 02:16:37;;;;;;;3.22;1.45;;;;;;;;;;5040143;28;20035;-79
2022/11/07 02:19:03;;;;;;;2.22;1.50;;;;;;;;;;5040443;28;20028;-78
2022/11/07 02:21:46;;;;;;;4.07;1.60;;;;;;;;;;5074049;28;20376;-78
2022/11/07 02:24:24;;;;;;;4.03;1.60;;;;;;;;;;5056700;28;20467;-78
2022/11/07 02:26:50;;;;;;;3.72;1.73;;;;;;;;;;5056239;28;20021;-79
2022/11/07 02:29:16;;;;;;;5.53;1.67;;;;;;;;;;5056339;28;20392;-78
2022/11/07 02:31:41;;;;;;;2.67;1.30;;;;;;;;;;5039404;28;20029;-78
2022/11/07 02:34:07;;;;;;;3.78;1.50;;;;;;;;;;5056150;28;20036;-79
2022/11/07 02:36:32;;;;;;;6.07;1.65;;;;;;;;;;5055970;28;20024;-78
2022/11/07 02:38:58;;;;;;;4.90;1.42;;;;;;;;;;5056479;28;20092;-78
2022/11/07 02:41:31;;;;;;;5.35;1.60;;;;;;;;;;5055788;28;20020;-78
2022/11/07 02:43:59;;;;;;;4.20;1.85;;;;;;;;;;5039081;28;20099;-78
2022/11/07 02:46:26;;;;;;;4.20;1.90;;;;;;;;;;5055598;28;20059;-80
2022/11/07 02:48:56;;;;;;;4.32;1.40;;;;;;;;;;5055686;28;20417;-80
2022/11/07 02:51:22;;;;;;;4.50;1.38;;;;;;;;;;5055880;28;20031;-80
2022/11/07 02:53:47;;;;;;;3.38;1.50;;;;;;;;;;5055377;28;20028;-80
2022/11/07 02:56:13;;;;;;;3.38;1.40;;;;;;;;;;5073671;28;20031;-80
2022/11/07 02:58:38;;;;;;;4.43;1.58;;;;;;;;;;5055336;28;20052;-79
2022/11/07 03:01:08;;;;;;;5.35;1.40;;;;;;;;;;5055610;28;20153;-80
2022/11/07 03:03:38;;;;;;;4.18;1.73;;;;;;;;;;5039363;28;20058;-80
2022/11/07 03:06:05;;;;;;;4.68;1.83;;;;;;;;;;5055497;28;20028;-80
2022/11/07 03:08:30;;;;;;;2.83;1.50;;;;;;;;;;5073377;28;20041;-80
2022/11/07 03:10:56;;;;;;;3.17;1.60;;;;;;;;;;5073099;28;20032;-80
2022/11/07 03:13:21;;;;;;;3.90;1.38;;;;;;;;;;5038928;28;20032;-80
2022/11/07 03:15:47;;;;;;;5.80;1.63;;;;;;;;;;5073499;28;20039;-79
2022/11/07 03:18:13;;;;;;;3.75;1.55;;;;;;;;;;5055503;28;20032;-79
2022/11/07 03:20:38;;;;;;;4.28;1.50;;;;;;;;;;5073349;28;20427;-79
2022/11/07 03:23:03;;;;;;;2.70;1.38;;;;;;;;;;5055758;28;20040;-79
2022/11/07 03:25:29;;;;;;;4.68;1.55;;;;;;;;;;5073082;28;20032;-80
2022/11/07 03:27:54;;;;;;;4.45;1.48;;;;;;;;;;5073273;28;20462;-80
2022/11/07 03:30:19;;;;;;;3.42;1.30;;;;;;;;;;5055187;28;20391;-80
2022/11/07 03:32:45;;;;;;;6.72;2.00;;;;;;;;;;5072983;28;20039;-80
2022/11/07 03:35:10;;;;;;;3.55;1.60;;;;;;;;;;5072997;28;20025;-80
2022/11/07 03:37:36;;;;;;;3.08;1.58;;;;;;;;;;5055088;28;20031;-80
2022/11/07 03:40:01;;;;;;;1.58;1.30;;;;;;;;;;5038444;28;20021;-80
2022/11/07 03:42:27;;;;;;;4.03;1.83;;;;;;;;;;5073107;28;20017;-80
2022/11/07 03:44:52;;;;;;;4.75;1.63;;;;;;;;;;5055263;28;20044;-80
2022/11/07 03:47:17;;;;;;;4.30;1.52;;;;;;;;;;5054946;28;20123;-79
2022/11/07 03:49:43;;;;;;;4.88;1.70;;;;;;;;;;5055327;28;20064;-80
2022/11/07 03:52:08;;;;;;;3.42;1.40;;;;;;;;;;5073113;28;20101;-79
2022/11/07 03:54:33;;;;;;;4.78;1.60;;;;;;;;;;5054907;28;20048;-80
2022/11/07 03:56:59;;;;;;;4.45;1.52;;;;;;;;;;5038236;28;20486;-80
2022/11/07 03:59:24;;;;;;;10.35;1.40;;;;;;;;;;5058306;28;20499;-80
2022/11/07 04:01:50;;;;;;;3.63;1.60;;;;;;;;;;5076699;28;20028;-79
2022/11/07 04:04:15;;;;;;;7.88;1.25;;;;;;;;;;5058499;28;20032;-79
2022/11/07 04:06:40;;;;;;;5.63;1.50;;;;;;;;;;5058884;28;20113;-79
2022/11/07 04:09:06;;;;;;;3.88;1.50;;;;;;;;;;5058910;28;20482;-79
2022/11/07 04:17:17;;;;;;;4.20;1.63;;;;;;;;;;5047412;28;20060;-80
2022/11/07 04:19:43;;;;;;;4.88;1.63;;;;;;;;;;5062572;28;20035;-80
2022/11/07 04:22:09;;;;;;;4.65;1.60;;;;;;;;;;5058706;28;20029;-80
2022/11/07 04:24:34;;;;;;;3.13;1.33;;;;;;;;;;5075209;28;20029;-80
2022/11/07 04:29:44;;;;;;;5.68;1.88;;;;;;;;;;5061089;28;20113;-80
2022/11/07 04:32:09;;;;;;;3.45;1.50;;;;;;;;;;5076193;28;20079;-79
2022/11/07 04:34:34;;;;;;;7.18;1.83;;;;;;;;;;5041626;28;20029;-79
2022/11/07 04:37:00;;;;;;;15.35;1.70;;;;;;;;;;5076227;28;20131;-80
2022/11/07 04:39:25;;;;;;;4.90;1.60;;;;;;;;;;5058228;28;20070;-79
2022/11/07 04:41:50;;;;;;;6.57;1.70;;;;;;;;;;5041406;28;20032;-79
2022/11/07 04:44:16;;;;;;;6.70;1.85;;;;;;;;;;5058470;28;20374;-79
2022/11/07 04:46:41;;;;;;;4.32;1.50;;;;;;;;;;5058678;28;20055;-80
2022/11/07 04:49:06;;;;;;;4.20;1.83;;;;;;;;;;5058032;28;20382;-79
2022/11/07 04:51:32;;;;;;;5.30;1.63;;;;;;;;;;5057781;28;20078;-79
2022/11/07 04:53:57;;;;;;;5.50;1.70;;;;;;;;;;5057652;28;20109;-80
2022/11/07 04:56:23;;;;;;;3.80;1.35;;;;;;;;;;5040831;28;20048;-79
2022/11/07 04:58:48;;;;;;;4.30;1.60;;;;;;;;;;5075746;28;20051;-79
2022/11/07 05:01:13;;;;;;;5.63;1.63;;;;;;;;;;5075324;28;20025;-79
2022/11/07 05:03:39;;;;;;;4.43;1.63;;;;;;;;;;5075792;28;20036;-79
2022/11/07 05:06:04;;;;;;;6.35;1.50;;;;;;;;;;5076021;28;20032;-79
2022/11/07 05:08:30;;;;;;;7.10;1.95;;;;;;;;;;5042058;28;20120;-80
2022/11/07 05:10:55;;;;;;;7.45;2.03;;;;;;;;;;5042751;28;20391;-79
2022/11/07 05:13:21;;;;;;;10.73;2.67;;;;;;;;;;5041281;28;20036;-80
2022/11/07 05:15:47;;;;;;;10.55;2.83;;;;;;;;;;5057775;28;20545;-80
2022/11/07 05:18:12;;;;;;;7.78;2.50;;;;;;;;;;5057639;28;20110;-80
2022/11/07 05:20:38;;;;;;;12.07;2.20;;;;;;;;;;5041169;28;20033;-79
2022/11/07 05:23:20;;;;;;;13.60;2.80;;;;;;;;;;5058073;28;20024;-79
2022/11/07 05:25:53;;;;;;;5.47;2.20;;;;;;;;;;5060194;28;20020;-78
2022/11/07 05:28:21;;;;;;;11.68;2.55;;;;;;;;;;5057371;28;20451;-80
2022/11/07 05:30:46;;;;;;;9.68;2.47;;;;;;;;;;5041164;28;20021;-80
2022/11/07 05:33:13;;;;;;;9.43;2.60;;;;;;;;;;5073962;28;20082;-79
2022/11/07 05:35:39;;;;;;;7.93;2.70;;;;;;;;;;5057565;28;20031;-80
2022/11/07 05:38:04;;;;;;;8.15;2.17;;;;;;;;;;5040760;28;20025;-81
2022/11/07 05:40:30;;;;;;;10.82;2.80;;;;;;;;;;5075064;28;20396;-79
2022/11/07 05:43:03;;;;;;;10.95;2.63;;;;;;;;;;5057208;28;20394;-82
2022/11/07 05:45:29;;;;;;;7.45;2.40;;;;;;;;;;5075199;28;20032;-81
2022/11/07 05:48:03;;;;;;;12.90;2.53;;;;;;;;;;5057495;28;20031;-80
2022/11/07 05:50:28;;;;;;;;;;;;;;;;;;5058847;28;20031;-80
2022/11/07 05:52:54;;;;;;;10.63;2.58;;;;;;;;;;5075064;28;19913;-81
2022/11/07 05:55:20;;;;;;;10.60;2.90;;;;;;;;;;5057119;28;20016;-80
2022/11/07 05:57:45;;;;;;;24.67;4.03;;;;;;;;;;5075098;28;20079;-80
2022/11/07 06:00:11;;;;;;;20.60;4.47;;;;;;;;;;5040279;28;20098;-77
2022/11/07 06:02:37;;;;;;;17.42;3.90;;;;;;;;;;5040492;28;20029;-79
2022/11/07 06:05:02;;;;;;;14.82;4.10;;;;;;;;;;5041479;28;20032;-80
2022/11/07 06:07:27;;;;;;;32.15;4.82;;;;;;;;;;5023708;28;20059;-80
2022/11/07 06:09:53;;;;;;;19.80;3.92;;;;;;;;;;5057185;28;20478;-80
2022/11/07 06:12:18;;;;;;;22.38;4.10;;;;;;;;;;5074782;28;20475;-80
2022/11/07 06:14:44;;;;;;;17.48;3.58;;;;;;;;;;5074732;28;20033;-80
2022/11/07 06:17:09;;;;;;;31.75;4.25;;;;;;;;;;5074277;28;20036;-80
2022/11/07 06:19:34;;;;;;;11.40;3.35;;;;;;;;;;5056925;28;20028;-80
2022/11/07 06:22:00;;;;;;;12.48;3.42;;;;;;;;;;5056503;28;20020;-80
2022/11/07 06:24:26;;;;;;;13.48;3.25;;;;;;;;;;5024015;28;20085;-79
2022/11/07 06:26:52;;;;;;;14.13;2.88;;;;;;;;;;5075504;28;20037;-79
2022/11/07 06:29:17;;;;;;;9.38;2.95;;;;;;;;;;5057154;28;20437;-79
2022/11/07 06:31:42;;;;;;;9.60;3.13;;;;;;;;;;5074891;28;20037;-80
2022/11/07 06:34:08;;;;;;;13.18;2.50;;;;;;;;;;5075070;28;20115;-79
2022/11/07 06:36:33;;;;;;;15.93;2.78;;;;;;;;;;5075671;28;20374;-79
2022/11/07 06:38:58;;;;;;;7.32;2.58;;;;;;;;;;5055998;28;20050;-79
2022/11/07 06:41:24;;;;;;;8.10;2.42;;;;;;;;;;5056073;28;20020;-79
2022/11/07 06:43:50;;;;;;;9.82;2.53;;;;;;;;;;5074294;28;20439;-79
2022/11/07 06:46:18;;;;;;;11.38;2.53;;;;;;;;;;5055719;28;20054;-79
2022/11/07 06:48:43;;;;;;;7.10;2.28;;;;;;;;;;5074013;28;20086;-79
2022/11/07 06:51:09;;;;;;;6.57;2.28;;;;;;;;;;5073795;28;20024;-80
2022/11/07 06:53:35;;;;;;;8.65;2.65;;;;;;;;;;5055678;28;20446;-79
2022/11/07 06:56:01;;;;;;;8.52;2.60;;;;;;;;;;5039057;28;20418;-79
2022/11/07 06:58:27;;;;;;;7.40;2.28;;;;;;;;;;5038883;28;20049;-79
2022/11/07 07:00:52;;;;;;;7.53;2.92;;;;;;;;;;5055530;28;20041;-79
2022/11/07 07:03:18;;;;;;;5.97;2.13;;;;;;;;;;5056100;28;20036;-78
2022/11/07 07:05:43;;;;;;;6.55;2.28;;;;;;;;;;5073598;28;20024;-80
2022/11/07 07:08:10;;;;;;;9.23;2.08;;;;;;;;;;5073766;28;20523;-80
2022/11/07 07:10:39;;;;;;;9.18;2.20;;;;;;;;;;5055510;28;20056;-80
2022/11/07 07:13:04;;;;;;;7.93;2.00;;;;;;;;;;5055657;28;20040;-80
2022/11/07 07:15:31;;;;;;;8.38;2.40;;;;;;;;;;5055937;28;20033;-80
2022/11/07 07:18:00;;;;;;;8.88;2.70;;;;;;;;;;5055472;28;20032;-80
2022/11/07 07:20:26;;;;;;;11.23;2.38;;;;;;;;;;5055555;28;20021;-80
2022/11/07 07:22:51;;;;;;;6.38;1.98;;;;;;;;;;5074578;28;20082;-79
2022/11/07 07:25:16;;;;;;;9.00;2.10;;;;;;;;;;5038790;28;20048;-79
2022/11/07 07:27:42;;;;;;;6.75;2.00;;;;;;;;;;5074770;28;20119;-79
2022/11/07 07:30:08;;;;;;;7.30;2.00;;;;;;;;;;5041676;28;20037;-80
2022/11/07 07:32:36;;;;;;;7.07;2.65;;;;;;;;;;5042513;28;20029;-79
2022/11/07 07:35:03;;;;;;;8.45;2.20;;;;;;;;;;5062881;28;20077;-79
2022/11/07 07:37:28;;;;;;;6.60;2.15;;;;;;;;;;5082136;28;20060;-79
2022/11/07 07:39:54;;;;;;;9.02;2.05;;;;;;;;;;5045716;28;20024;-80
2022/11/07 07:42:19;;;;;;;7.45;1.98;;;;;;;;;;5063417;28;20086;-79
2022/11/07 07:44:44;;;;;;;6.30;2.35;;;;;;;;;;5045684;28;20098;-79
2022/11/07 07:47:10;;;;;;;7.13;2.75;;;;;;;;;;5063238;28;20032;-80
2022/11/07 07:49:35;;;;;;;8.57;2.22;;;;;;;;;;5027892;28;20041;-80
2022/11/07 07:52:01;;;;;;;7.78;2.30;;;;;;;;;;5045010;28;20028;-80
2022/11/07 07:54:26;;;;;;;8.32;1.95;;;;;;;;;;5079872;28;20032;-80
2022/11/07 07:56:51;;;;;;;4.93;1.88;;;;;;;;;;5079546;28;20476;-79
2022/11/07 07:59:17;;;;;;;6.78;2.20;;;;;;;;;;5062213;28;20056;-80
2022/11/07 08:01:42;;;;;;;6.00;1.90;;;;;;;;;;5043054;28;20036;-79
2022/11/07 08:04:08;;;;;;;10.68;2.22;;;;;;;;;;5059674;28;20047;-80
2022/11/07 08:06:34;;;;;;;6.25;2.35;;;;;;;;;;5059127;28;20028;-80
2022/11/07 08:09:00;;;;;;;8.55;1.95;;;;;;;;;;5059539;28;20020;-80
2022/11/07 08:11:25;;;;;;;8.85;2.38;;;;;;;;;;5059103;28;20025;-80
2022/11/07 08:13:50;;;;;;;6.57;2.03;;;;;;;;;;5077031;28;20472;-80
2022/11/07 08:16:16;;;;;;;5.65;2.08;;;;;;;;;;5059546;28;20028;-79
2022/11/07 08:18:41;;;;;;;6.47;1.85;;;;;;;;;;5058870;28;20025;-80
2022/11/07 08:21:07;;;;;;;7.15;2.28;;;;;;;;;;5078010;28;20094;-79
2022/11/07 08:23:33;;;;;;;7.50;2.10;;;;;;;;;;5058692;28;20127;-79
2022/11/07 08:26:01;;;;;;;7.82;1.98;;;;;;;;;;5060573;28;20028;-79
2022/11/07 08:28:28;;;;;;;6.80;2.33;;;;;;;;;;5077101;28;20020;-79
2022/11/07 08:30:57;;;;;;;6.85;1.73;;;;;;;;;;5058673;28;20029;-79
2022/11/07 08:33:22;;;;;;;5.85;1.80;;;;;;;;;;5076347;28;20426;-79
2022/11/07 08:35:48;;;;;;;7.30;1.80;;;;;;;;;;5076327;28;20028;-79
2022/11/07 08:38:13;;;;;;;7.80;1.90;;;;;;;;;;5059386;28;20059;-79
2022/11/07 08:40:39;;;;;;;5.80;2.03;;;;;;;;;;5076175;28;20067;-79
2022/11/07 08:43:04;;;;;;;5.72;1.95;;;;;;;;;;5058505;28;20395;-79
2022/11/07 08:45:29;;;;;;;6.35;1.88;;;;;;;;;;5059993;28;20546;-79
2022/11/07 08:47:56;;;;;;;8.38;1.95;;;;;;;;;;5061819;28;20029;-79
2022/11/07 08:50:22;;;;;;;6.22;2.20;;;;;;;;;;5043679;28;20394;-79
2022/11/07 08:52:47;;;;;;;7.85;2.17;;;;;;;;;;5079511;28;20033;-79
2022/11/07 08:55:12;;;;;;;7.45;2.00;;;;;;;;;;5060196;28;20115;-79
2022/11/07 08:57:38;;;;;;;6.90;2.30;;;;;;;;;;5077632;28;20034;-80
2022/11/07 09:00:04;;;;;;;9.32;2.20;;;;;;;;;;5076864;28;20102;-79
2022/11/07 09:02:30;;;;;;;9.20;2.08;;;;;;;;;;5075648;28;20032;-79
2022/11/07 09:04:55;;;;;;;4.88;1.80;;;;;;;;;;5058558;28;20040;-79
2022/11/07 09:07:20;;;;;;;6.47;2.42;;;;;;;;;;5058082;28;20036;-79
2022/11/07 09:09:46;;;;;;;8.30;2.10;;;;;;;;;;5075740;28;20029;-79
2022/11/07 09:12:11;;;;;;;6.30;2.10;;;;;;;;;;5075727;28;20037;-79
2022/11/07 09:14:36;;;;;;;4.70;1.60;;;;;;;;;;5057800;28;20490;-79
2022/11/07 09:17:02;;;;;;;7.95;2.03;;;;;;;;;;5075493;28;20032;-79
2022/11/07 09:19:27;;;;;;;6.75;1.88;;;;;;;;;;5057465;28;20490;-78
2022/11/07 09:21:53;;;;;;;6.65;2.08;;;;;;;;;;5057712;28;20068;-79
2022/11/07 09:24:18;;;;;;;5.57;1.50;;;;;;;;;;5057760;28;20028;-79
2022/11/07 09:26:43;;;;;;;10.00;2.25;;;;;;;;;;5075677;28;20036;-79
2022/11/07 09:29:09;;;;;;;3.47;1.60;;;;;;;;;;5075444;28;20032;-79
2022/11/07 09:31:34;;;;;;;5.93;2.10;;;;;;;;;;5057553;28;20033;-79
2022/11/07 09:33:59;;;;;;;5.72;1.95;;;;;;;;;;5075499;28;20115;-79
2022/11/07 09:36:25;;;;;;;6.22;1.85;;;;;;;;;;5075449;28;20033;-79
2022/11/07 09:38:50;;;;;;;6.28;1.80;;;;;;;;;;5073928;28;20535;-79
2022/11/07 09:41:40;;;;;;;4.85;1.60;;;;;;;;;;5057613;28;20134;-79
2022/11/07 09:44:36;;;;;;;9.38;2.13;;;;;;;;;;5075410;28;20028;-79
2022/11/07 09:47:18;;;;;;;8.95;2.33;;;;;;;;;;5056836;28;20025;-79
2022/11/07 09:49:46;;;;;;;5.55;1.80;;;;;;;;;;5058213;28;20115;-79
2022/11/07 09:52:11;;;;;;;5.55;2.10;;;;;;;;;;5074950;28;20111;-79
2022/11/07 09:54:39;;;;;;;8.40;2.08;;;;;;;;;;5075088;28;20150;-79
2022/11/07 09:57:05;;;;;;;10.25;2.20;;;;;;;;;;5039438;28;20024;-79
2022/11/07 09:59:49;;;;;;;5.53;1.77;;;;;;;;;;5057870;28;20455;-79
2022/11/07 10:02:19;;;;;;;6.97;2.42;;;;;;;;;;5074888;28;20123;-79
2022/11/07 10:04:45;;;;;;;4.93;1.90;;;;;;;;;;5057920;28;20521;-79
2022/11/07 10:07:11;;;;;;;5.20;1.70;;;;;;;;;;5056756;28;20052;-78
2022/11/07 10:10:18;;;;;;;4.10;1.70;;;;;;;;;;5075760;28;20052;-79
2022/11/07 10:13:12;;;;;;;4.40;2.03;;;;;;;;;;5053738;28;20123;-79
2022/11/07 10:15:46;;;;;;;5.57;2.00;;;;;;;;;;5057187;28;20032;-79
2022/11/07 10:18:30;;;;;;;5.78;2.10;;;;;;;;;;5074219;28;20036;-79
2022/11/07 10:21:41;;;;;;;4.00;2.05;;;;;;;;;;5056868;28;20021;-79
2022/11/07 10:24:28;;;;;;;6.22;1.90;;;;;;;;;;5053654;28;20027;-79
2022/11/07 10:26:54;;;;;;;6.57;1.85;;;;;;;;;;5074615;28;20393;-79
2022/11/07 10:29:22;;;;;;;7.65;2.20;;;;;;;;;;5056489;28;20059;-79
2022/11/07 10:31:57;;;;;;;7.38;2.10;;;;;;;;;;5074355;28;20036;-79
2022/11/07 10:34:34;;;;;;;5.93;2.10;;;;;;;;;;5056414;28;20024;-79
2022/11/07 10:36:59;;;;;;;6.97;2.03;;;;;;;;;;5056612;28;20028;-79
2022/11/07 10:39:24;;;;;;;4.20;1.70;;;;;;;;;;5022914;28;20387;-79
2022/11/07 10:42:20;;;;;;;5.15;1.70;;;;;;;;;;5055916;28;20076;-79
2022/11/07 10:44:46;;;;;;;5.15;2.05;;;;;;;;;;5072568;28;20074;-78
2022/11/07 10:47:20;;;;;;;5.78;1.98;;;;;;;;;;5056468;28;20043;-78
2022/11/07 10:49:59;;;;;;;5.10;1.92;;;;;;;;;;5055941;28;20487;-78
2022/11/07 10:52:26;;;;;;;5.00;1.98;;;;;;;;;;5055670;28;20497;-78
2022/11/07 10:55:04;;;;;;;6.18;2.10;;;;;;;;;;5073841;28;20036;-78
2022/11/07 10:57:33;;;;;;;6.18;2.08;;;;;;;;;;5074101;28;20016;-79
2022/11/07 10:59:58;;;;;;;6.18;2.00;;;;;;;;;;5056124;28;20102;-79
2022/11/07 11:02:44;;;;;;;7.90;2.28;;;;;;;;;;5073429;28;20426;-79
2022/11/07 11:05:29;;;;;;;4.88;1.90;;;;;;;;;;5056171;28;20036;-78
2022/11/07 11:07:56;;;;;;;6.13;2.05;;;;;;;;;;5073452;28;20048;-79
2022/11/07 11:10:28;;;;;;;5.30;1.77;;;;;;;;;;5073357;28;20542;-79
2022/11/07 11:12:53;;;;;;;4.78;1.90;;;;;;;;;;5073868;28;20047;-78
2022/11/07 11:15:24;;;;;;;5.15;1.77;;;;;;;;;;5039045;28;20028;-79
2022/11/07 11:17:57;;;;;;;6.63;2.00;;;;;;;;;;5073585;28;20435;-79
2022/11/07 11:20:29;;;;;;;6.88;2.28;;;;;;;;;;5073680;28;20032;-79
2022/11/07 11:22:55;;;;;;;5.40;1.70;;;;;;;;;;5074158;28;20471;-79
2022/11/07 11:25:22;;;;;;;6.35;1.80;;;;;;;;;;5038814;28;20032;-79
2022/11/07 11:27:50;;;;;;;7.90;2.10;;;;;;;;;;5055831;28;20116;-78
2022/11/07 11:30:18;;;;;;;5.07;2.05;;;;;;;;;;5055446;28;20032;-78
2022/11/07 11:32:56;;;;;;;3.25;1.58;;;;;;;;;;5038638;28;20442;-79
2022/11/07 11:35:37;;;;;;;6.90;2.10;;;;;;;;;;5073183;28;20021;-78
2022/11/07 11:38:10;;;;;;;7.60;1.90;;;;;;;;;;5055393;28;20021;-78
2022/11/07 11:40:39;;;;;;;5.63;1.85;;;;;;;;;;5073416;28;20025;-79
2022/11/07 11:43:31;;;;;;;6.82;1.98;;;;;;;;;;5055694;28;20028;-78
2022/11/07 11:46:00;;;;;;;6.72;2.30;;;;;;;;;;5055511;28;20021;-77
2022/11/07 11:48:43;;;;;;;7.60;1.90;;;;;;;;;;5073887;28;20025;-78
2022/11/07 11:51:17;;;;;;;4.93;1.67;;;;;;;;;;5055403;28;20047;-79
2022/11/07 11:53:43;;;;;;;7.32;2.10;;;;;;;;;;5055276;28;20029;-78
2022/11/07 11:56:17;;;;;;;7.32;2.20;;;;;;;;;;5055352;28;20415;-78
2022/11/07 11:58:58;;;;;;;6.90;2.25;;;;;;;;;;5072869;28;20134;-78
2022/11/07 12:01:36;;;;;;;5.22;2.05;;;;;;;;;;5055127;28;20028;-78
2022/11/07 12:04:38;;;;;;;6.72;1.98;;;;;;;;;;5073124;28;20025;-78
2022/11/07 12:07:44;;;;;;;8.75;2.15;;;;;;;;;;5072806;28;20070;-77
2022/11/07 12:10:28;;;;;;;5.80;1.80;;;;;;;;;;5055166;28;20024;-78
2022/11/07 12:13:31;;;;;;;8.73;2.17;;;;;;;;;;5054923;28;20045;-78
2022/11/07 12:16:20;;;;;;;7.53;1.90;;;;;;;;;;5063318;28;20541;-78
2022/11/07 12:19:12;;;;;;;5.10;1.80;;;;;;;;;;5073889;28;20028;-78
2022/11/07 12:21:48;;;;;;;6.00;2.03;;;;;;;;;;5042107;28;20074;-78
2022/11/07 12:24:34;;;;;;;7.30;1.98;;;;;;;;;;5058864;28;20382;-78
2022/11/07 12:27:24;;;;;;;8.13;2.10;;;;;;;;;;5058780;28;20064;-79
2022/11/07 12:30:13;;;;;;;5.97;2.00;;;;;;;;;;5076300;28;20364;-78
2022/11/07 12:32:56;;;;;;;5.13;1.90;;;;;;;;;;5042528;28;20059;-78
2022/11/07 12:35:46;;;;;;;6.70;2.03;;;;;;;;;;5076450;28;20471;-78
2022/11/07 12:38:22;;;;;;;7.43;1.92;;;;;;;;;;5076229;28;20032;-78
2022/11/07 12:40:50;;;;;;;9.68;2.13;;;;;;;;;;5058109;28;20027;-77
2022/11/07 12:43:46;;;;;;;6.10;2.30;;;;;;;;;;5076738;28;20032;-78
2022/11/07 12:46:40;;;;;;;7.78;2.03;;;;;;;;;;5058318;28;20017;-78
2022/11/07 12:49:24;;;;;;;3.47;1.63;;;;;;;;;;5058229;28;20027;-80
2022/11/07 12:52:24;;;;;;;11.50;2.10;;;;;;;;;;5076076;28;20431;-78
2022/11/07 12:55:03;;;;;;;5.85;2.20;;;;;;;;;;5057795;28;20044;-78
2022/11/07 12:57:35;;;;;;;6.13;1.90;;;;;;;;;;5058033;28;20028;-78
2022/11/07 13:00:06;;;;;;;6.78;2.10;;;;;;;;;;5057843;28;20140;-78
2022/11/07 13:02:54;;;;;;;6.47;2.17;;;;;;;;;;5057639;28;20020;-78
2022/11/07 13:05:34;;;;;;;5.70;2.10;;;;;;;;;;5057735;28;20024;-78
2022/11/07 13:08:34;;;;;;;5.43;2.20;;;;;;;;;;5075880;28;20025;-78
2022/11/07 13:11:04;;;;;;;5.95;2.00;;;;;;;;;;5057600;28;20031;-78
2022/11/07 13:13:44;;;;;;;5.82;2.05;;;;;;;;;;5075880;28;20032;-78
2022/11/07 13:16:47;;;;;;;6.05;2.00;;;;;;;;;;5041126;28;20024;-78
2022/11/07 13:19:25;;;;;;;4.45;1.92;;;;;;;;;;5045169;28;20036;-78
2022/11/07 13:22:07;;;;;;;6.05;2.03;;;;;;;;;;5057292;28;20020;-78
2022/11/07 13:24:37;;;;;;;4.85;1.77;;;;;;;;;;5057641;28;20455;-78
2022/11/07 13:27:14;;;;;;;6.57;2.17;;;;;;;;;;5057940;28;20100;-78
2022/11/07 13:29:39;;;;;;;5.50;1.80;;;;;;;;;;5056799;28;20033;-78
2022/11/07 13:32:10;;;;;;;4.75;1.73;;;;;;;;;;5074928;28;20028;-78
2022/11/07 13:34:38;;;;;;;7.38;1.90;;;;;;;;;;5040539;28;20036;-78
2022/11/07 13:37:04;;;;;;;8.40;2.13;;;;;;;;;;5075393;28;20031;-78
2022/11/07 13:39:30;;;;;;;8.30;2.00;;;;;;;;;;5040778;28;20032;-78
2022/11/07 13:41:55;;;;;;;5.40;1.77;;;;;;;;;;5057131;28;20447;-78
2022/11/07 13:44:31;;;;;;;6.13;2.03;;;;;;;;;;5057208;28;20471;-78
2022/11/07 13:47:01;;;;;;;3.80;2.00;;;;;;;;;;5074913;28;20028;-78
2022/11/07 13:49:34;;;;;;;5.22;1.73;;;;;;;;;;5057459;28;20053;-78
2022/11/07 13:52:09;;;;;;;6.32;2.03;;;;;;;;;;5057049;28;20028;-79
2022/11/07 13:54:53;;;;;;;4.72;2.15;;;;;;;;;;5040710;28;20387;-78
2022/11/07 13:57:33;;;;;;;4.53;2.03;;;;;;;;;;5057120;28;20419;-78
2022/11/07 14:00:15;;;;;;;5.60;2.10;;;;;;;;;;5057543;28;20044;-78
2022/11/07 14:02:57;;;;;;;7.70;1.98;;;;;;;;;;5059408;28;20028;-78
2022/11/07 14:05:35;;;;;;;6.75;1.88;;;;;;;;;;5059505;28;20029;-78
2022/11/07 14:08:06;;;;;;;5.05;1.80;;;;;;;;;;5060665;28;20039;-79
2022/11/07 14:10:33;;;;;;;7.55;2.15;;;;;;;;;;5044212;28;20130;-78
2022/11/07 14:13:07;;;;;;;8.52;1.90;;;;;;;;;;5059699;28;20043;-78
2022/11/07 14:15:34;;;;;;;7.43;2.17;;;;;;;;;;5059495;28;20043;-78
2022/11/07 14:18:00;;;;;;;5.30;1.67;;;;;;;;;;5059290;28;20055;-78
2022/11/07 14:20:25;;;;;;;9.20;2.08;;;;;;;;;;5058764;28;20039;-78
2022/11/07 14:22:54;;;;;;;6.63;2.20;;;;;;;;;;5077351;28;20518;-78
2022/11/07 14:25:21;;;;;;;6.43;1.98;;;;;;;;;;5041854;28;20081;-78
2022/11/07 14:27:46;;;;;;;5.45;2.20;;;;;;;;;;5057098;28;20525;-78
2022/11/07 14:30:16;;;;;;;5.93;2.00;;;;;;;;;;5056810;28;20064;-78
2022/11/07 14:33:18;;;;;;;6.60;2.20;;;;;;;;;;5039637;28;20035;-79
2022/11/07 14:35:45;;;;;;;5.30;1.98;;;;;;;;;;5056939;28;20111;-79
2022/11/07 14:38:17;;;;;;;4.68;1.60;;;;;;;;;;5058827;28;20032;-79
2022/11/07 14:40:43;;;;;;;4.38;1.70;;;;;;;;;;5060858;28;20154;-79
2022/11/07 14:43:19;;;;;;;8.63;1.80;;;;;;;;;;5061490;28;20044;-79
2022/11/07 14:45:45;;;;;;;4.75;1.67;;;;;;;;;;5059383;28;20422;-79
2022/11/07 14:48:13;;;;;;;4.35;1.73;;;;;;;;;;5060610;28;20052;-79
2022/11/07 14:50:39;;;;;;;7.57;1.85;;;;;;;;;;5046957;28;20459;-79
2022/11/07 14:53:17;;;;;;;7.20;1.92;;;;;;;;;;5059489;28;20078;-80
2022/11/07 14:55:47;;;;;;;6.18;2.00;;;;;;;;;;5045604;28;20039;-79
2022/11/07 14:58:13;;;;;;;9.95;1.92;;;;;;;;;;5059976;28;20024;-79
2022/11/07 15:01:09;;;;;;;4.50;1.85;;;;;;;;;;5057441;28;20101;-78
2022/11/07 15:03:36;;;;;;;11.52;2.03;;;;;;;;;;5056639;28;20036;-79
2022/11/07 15:06:02;;;;;;;4.35;1.65;;;;;;;;;;5056481;28;20475;-78
2022/11/07 15:08:35;;;;;;;8.80;2.13;;;;;;;;;;5074611;28;20047;-79
2022/11/07 15:11:20;;;;;;;5.32;1.58;;;;;;;;;;5056392;28;20025;-79